createdAt,value
2023-02-17T00:02:32.987Z,42.22
2023-02-17T00:05:40.532Z,42.47
2023-02-17T00:08:44.238Z,42.15
2023-02-17T00:11:47.448Z,43.00
2023-02-17T00:14:50.822Z,42.13
2023-02-17T00:17:54.038Z,41.15
2023-02-17T00:20:57.276Z,42.65
2023-02-17T00:24:00.776Z,42.53
2023-02-17T00:27:05.044Z,42.95
2023-02-17T00:30:09.390Z,44.88
2023-02-17T00:33:12.649Z,44.97
2023-02-17T00:36:18.647Z,45.17
2023-02-17T00:39:21.875Z,44.92
2023-02-17T00:42:25.692Z,46.17
2023-02-17T00:45:28.854Z,49.60
2023-02-17T00:48:32.634Z,48.10
2023-02-17T00:51:35.851Z,49.60
2023-02-17T00:54:42.062Z,50.57
2023-02-17T00:57:46.285Z,53.53
2023-02-17T01:00:49.750Z,53.58
2023-02-17T01:03:53.055Z,52.60
2023-02-17T01:06:56.262Z,54.50
2023-02-17T01:09:59.962Z,52.13
2023-02-17T01:13:05.104Z,51.78
2023-02-17T01:16:16.409Z,51.85
2023-02-17T01:19:20.324Z,49.63
2023-02-17T01:22:24.624Z,49.15
2023-02-17T01:25:27.693Z,49.70
2023-02-17T01:28:32.449Z,48.22
2023-02-17T01:31:35.987Z,48.28
2023-02-17T01:34:39.540Z,47.50
2023-02-17T01:37:42.967Z,48.25
2023-02-17T01:40:47.919Z,48.30
2023-02-17T01:44:20.737Z,47.53
2023-02-17T01:47:23.914Z,47.22
2023-02-17T01:50:36.264Z,47.77
2023-02-17T01:53:42.515Z,46.47
2023-02-17T01:56:48.530Z,48.28
2023-02-17T01:59:52.362Z,48.75
2023-02-17T02:02:56.031Z,49.37
2023-02-17T02:06:01.110Z,49.88
2023-02-17T02:09:15.084Z,51.15
2023-02-17T02:12:31.283Z,52.33
2023-02-17T02:16:12.043Z,50.45
2023-02-17T02:19:52.277Z,50.42
2023-02-17T02:23:04.246Z,50.83
2023-02-17T02:26:26.452Z,50.85
2023-02-17T02:30:02.365Z,51.13
2023-02-17T02:33:09.760Z,49.35
2023-02-17T02:36:15.650Z,50.17
2023-02-17T02:39:24.990Z,50.20
2023-02-17T02:42:29.035Z,50.35
2023-02-17T02:45:34.932Z,50.07
2023-02-17T02:48:39.260Z,48.53
2023-02-17T02:52:14.965Z,47.70
2023-02-17T02:55:46.884Z,47.60
2023-02-17T02:59:29.464Z,46.78
2023-02-17T03:02:44.720Z,46.50
2023-02-17T03:06:03.385Z,45.35
2023-02-17T03:09:23.061Z,47.20
2023-02-17T03:12:27.847Z,45.85
2023-02-17T03:15:34.916Z,45.88
2023-02-17T03:18:38.441Z,43.03
2023-02-17T03:21:52.820Z,42.53
2023-02-17T03:24:56.122Z,42.63
2023-02-17T03:27:59.383Z,42.65
2023-02-17T03:31:02.709Z,40.63
2023-02-17T03:34:06.267Z,40.05
2023-02-17T03:37:09.499Z,39.33
2023-02-17T03:40:13.104Z,42.47
2023-02-17T03:43:18.136Z,42.17
2023-02-17T03:46:22.216Z,43.53
2023-02-17T03:49:25.544Z,43.07
2023-02-17T03:52:28.837Z,45.70
2023-02-17T03:55:32.068Z,45.03
2023-02-17T03:58:35.814Z,42.65
2023-02-17T04:01:39.100Z,42.42
2023-02-17T04:04:42.328Z,43.08
2023-02-17T04:07:45.491Z,40.55
2023-02-17T04:10:56.520Z,37.30
2023-02-17T04:13:59.834Z,41.05
2023-02-17T04:17:02.979Z,40.17
2023-02-17T04:20:08.114Z,39.40
2023-02-17T04:23:14.501Z,38.88
2023-02-17T04:26:17.838Z,38.33
2023-02-17T04:29:21.261Z,38.53
2023-02-17T04:32:24.436Z,38.53
2023-02-17T04:35:27.931Z,39.22
2023-02-17T04:38:32.424Z,36.97
2023-02-17T04:41:35.765Z,37.40
2023-02-17T04:44:39.021Z,38.38
2023-02-17T04:47:42.394Z,37.78
2023-02-17T04:50:45.853Z,38.30
2023-02-17T04:53:49.114Z,38.47
2023-02-17T04:56:52.324Z,38.47
2023-02-17T04:59:55.787Z,37.83
2023-02-17T05:02:59.121Z,37.97
2023-02-17T05:06:02.264Z,38.25
2023-02-17T05:09:05.630Z,39.15
2023-02-17T05:12:08.917Z,39.87
2023-02-17T05:15:12.496Z,37.38
2023-02-17T05:18:16.073Z,36.45
2023-02-17T05:21:19.261Z,36.67
2023-02-17T05:24:22.741Z,36.72
2023-02-17T05:27:26.143Z,36.72
2023-02-17T05:30:29.669Z,36.17
2023-02-17T05:33:33.315Z,36.03
2023-02-17T05:36:36.606Z,37.03
2023-02-17T05:39:40.035Z,35.63
2023-02-17T05:42:45.929Z,35.53
2023-02-17T05:45:49.191Z,35.75
2023-02-17T05:48:52.397Z,35.58
2023-02-17T05:51:55.722Z,35.33
2023-02-17T05:54:58.839Z,36.38
2023-02-17T05:58:02.509Z,34.53
2023-02-17T06:01:12.434Z,34.05
2023-02-17T06:04:15.746Z,33.53
2023-02-17T06:07:19.128Z,26.23
2023-02-17T06:10:22.561Z,32.70
2023-02-17T06:13:26.195Z,28.43
2023-02-17T06:16:29.686Z,32.08
2023-02-17T06:19:33.266Z,30.38
2023-02-17T06:22:37.923Z,31.67
2023-02-17T06:25:42.755Z,30.20
2023-02-17T06:28:46.095Z,30.95
2023-02-17T06:31:50.901Z,31.20
2023-02-17T06:34:54.403Z,32.30
2023-02-17T06:37:57.731Z,32.35
2023-02-17T06:41:01.110Z,31.20
2023-02-17T06:44:04.475Z,31.63
2023-02-17T06:47:07.669Z,29.85
2023-02-17T06:50:12.400Z,31.65
2023-02-17T06:53:25.772Z,32.53
2023-02-17T06:56:31.599Z,29.30
2023-02-17T06:59:35.099Z,29.75
2023-02-17T07:02:47.943Z,27.73
2023-02-17T07:05:51.627Z,32.40
2023-02-17T07:09:09.567Z,28.47
2023-02-17T07:12:13.109Z,30.20
2023-02-17T07:15:16.503Z,32.13
2023-02-17T07:18:22.555Z,31.90
2023-02-17T07:21:26.407Z,31.03
2023-02-17T07:24:30.094Z,31.60
2023-02-17T07:27:35.223Z,32.35
2023-02-17T07:30:42.152Z,29.27
2023-02-17T07:33:48.761Z,30.10
2023-02-17T07:36:54.935Z,31.17
2023-02-17T07:39:58.342Z,31.98
2023-02-17T07:43:03.581Z,32.63
2023-02-17T07:46:08.864Z,28.85
2023-02-17T07:49:15.568Z,26.27
2023-02-17T07:52:19.508Z,26.70
2023-02-17T07:55:22.873Z,26.10
2023-02-17T07:58:26.315Z,26.27
2023-02-17T08:01:29.673Z,25.70
2023-02-17T08:04:33.106Z,26.65
2023-02-17T08:07:43.638Z,26.58
2023-02-17T08:11:06.237Z,27.40
2023-02-17T08:14:11.567Z,25.85
2023-02-17T08:17:16.167Z,26.38
2023-02-17T08:20:19.696Z,26.98
2023-02-17T08:23:23.395Z,26.43
2023-02-17T08:26:26.675Z,26.73
2023-02-17T08:29:32.876Z,28.23
2023-02-17T08:32:36.219Z,28.00
2023-02-17T08:35:39.525Z,28.40
2023-02-17T08:38:50.277Z,27.50
2023-02-17T08:42:06.123Z,27.75
2023-02-17T08:45:09.965Z,27.35
2023-02-17T08:48:13.317Z,27.50
2023-02-17T08:51:18.470Z,27.48
2023-02-17T08:54:22.011Z,27.53
2023-02-17T08:57:28.378Z,25.70
2023-02-17T09:00:31.721Z,27.90
2023-02-17T09:03:37.928Z,27.88
2023-02-17T09:06:48.432Z,27.45
2023-02-17T09:09:51.870Z,24.87
2023-02-17T09:12:55.250Z,27.25
2023-02-17T09:15:59.644Z,28.15
2023-02-17T09:19:03.380Z,27.25
2023-02-17T09:22:06.762Z,28.27
2023-02-17T09:25:11.316Z,27.33
2023-02-17T09:28:15.506Z,29.10
2023-02-17T09:31:25.015Z,29.40
2023-02-17T09:34:38.833Z,29.30
2023-02-17T09:37:43.868Z,30.52
2023-02-17T09:40:49.982Z,29.57
2023-02-17T09:43:55.035Z,30.17
2023-02-17T09:47:38.661Z,29.10
2023-02-17T09:50:54.619Z,29.52
2023-02-17T09:54:29.802Z,30.90
2023-02-17T09:57:48.008Z,26.37
2023-02-17T10:00:56.986Z,23.33
2023-02-17T10:04:20.984Z,30.10
2023-02-17T10:07:33.134Z,29.88
2023-02-17T10:10:46.262Z,30.98
2023-02-17T10:13:57.406Z,30.30
2023-02-17T10:17:12.376Z,31.38
2023-02-17T10:20:24.696Z,30.83
2023-02-17T10:23:30.860Z,30.77
2023-02-17T10:26:56.778Z,32.50
2023-02-17T10:30:19.757Z,28.17
2023-02-17T10:33:50.232Z,25.38
2023-02-17T10:37:15.319Z,31.20
2023-02-17T10:40:29.201Z,30.70
2023-02-17T10:43:33.589Z,29.75
2023-02-17T10:46:40.576Z,32.67
2023-02-17T10:49:50.885Z,31.20
2023-02-17T10:52:56.423Z,31.95
2023-02-17T10:56:23.964Z,33.10
2023-02-17T10:59:38.448Z,32.05
2023-02-17T11:02:52.337Z,30.83
2023-02-17T11:06:02.774Z,28.57
2023-02-17T11:09:32.827Z,27.20
2023-02-17T11:12:44.589Z,31.45
2023-02-17T11:15:48.223Z,29.48
2023-02-17T11:18:58.650Z,22.30
2023-02-17T11:22:05.188Z,28.17
2023-02-17T11:25:31.963Z,26.40
2023-02-17T11:28:35.409Z,26.13
2023-02-17T11:31:41.798Z,25.50
2023-02-17T11:34:55.851Z,23.70
2023-02-17T11:38:13.994Z,23.37
2023-02-17T11:41:17.631Z,23.05
2023-02-17T11:44:28.295Z,19.13
2023-02-17T11:48:07.604Z,21.17
2023-02-17T11:51:35.803Z,17.80
2023-02-17T11:54:49.362Z,20.77
2023-02-17T11:58:30.633Z,20.05
2023-02-17T12:01:41.640Z,21.55
2023-02-17T12:05:19.726Z,22.92
2023-02-17T12:08:43.044Z,21.23
2023-02-17T12:12:33.773Z,22.07
2023-02-17T12:16:02.856Z,23.42
2023-02-17T12:19:41.370Z,22.98
2023-02-17T12:22:50.612Z,21.75
2023-02-17T12:26:14.623Z,24.27
2023-02-17T12:29:20.850Z,24.03
2023-02-17T12:32:32.917Z,22.15
2023-02-17T12:35:53.002Z,21.83
2023-02-17T12:39:02.966Z,18.27
2023-02-17T12:42:26.629Z,18.13
2023-02-17T12:45:46.580Z,19.30
2023-02-17T12:49:13.888Z,20.52
2023-02-17T12:52:30.922Z,19.33
2023-02-17T12:55:52.216Z,15.93
2023-02-17T12:59:05.778Z,19.27
2023-02-17T13:02:20.260Z,19.83
2023-02-17T13:05:42.166Z,18.65
2023-02-17T13:08:58.669Z,19.98
2023-02-17T13:12:17.740Z,17.15
2023-02-17T13:15:47.498Z,14.97
2023-02-17T13:18:52.488Z,16.10
2023-02-17T13:21:58.578Z,17.70
2023-02-17T13:25:02.838Z,14.27
2023-02-17T13:28:34.340Z,16.30
2023-02-17T13:31:46.905Z,16.03
2023-02-17T13:35:01.949Z,15.00
2023-02-17T13:38:05.315Z,15.40
2023-02-17T13:41:12.357Z,14.15
2023-02-17T13:44:34.490Z,14.25
2023-02-17T13:47:41.159Z,12.73
2023-02-17T13:50:50.663Z,12.20
2023-02-17T13:54:09.450Z,12.45
2023-02-17T13:57:27.162Z,11.57
2023-02-17T14:00:32.386Z,12.35
2023-02-17T14:03:46.721Z,12.30
2023-02-17T14:06:50.082Z,13.07
2023-02-17T14:09:55.165Z,12.30
2023-02-17T14:12:58.642Z,12.13
2023-02-17T14:16:01.977Z,11.45
2023-02-17T14:19:06.766Z,12.30
2023-02-17T14:22:23.596Z,11.87
2023-02-17T14:25:29.834Z,12.70
2023-02-17T14:28:33.091Z,12.60
2023-02-17T14:31:41.849Z,10.98
2023-02-17T14:34:45.284Z,11.10
2023-02-17T14:37:48.809Z,11.37
2023-02-17T14:40:53.521Z,9.88
2023-02-17T14:43:57.255Z,9.20
2023-02-17T14:47:00.675Z,10.60
2023-02-17T14:50:04.176Z,10.63
2023-02-17T14:53:19.133Z,10.53
2023-02-17T14:56:27.510Z,11.27
2023-02-17T14:59:30.835Z,9.60
2023-02-17T15:02:34.607Z,9.90
2023-02-17T15:05:37.813Z,9.20
2023-02-17T15:08:41.622Z,9.50
2023-02-17T15:11:49.249Z,8.90
2023-02-17T15:14:52.530Z,9.07
2023-02-17T15:17:55.784Z,10.15
2023-02-17T15:20:59.468Z,9.93
2023-02-17T15:24:06.543Z,9.37
2023-02-17T15:27:15.499Z,9.07
2023-02-17T15:30:22.873Z,8.98
2023-02-17T15:33:26.985Z,9.73
2023-02-17T15:36:30.341Z,9.87
2023-02-17T15:39:33.971Z,9.40
2023-02-17T15:42:37.595Z,9.27
2023-02-17T15:45:41.038Z,9.30
2023-02-17T15:48:48.500Z,9.68
2023-02-17T15:51:53.915Z,9.67
2023-02-17T15:54:57.345Z,9.33
2023-02-17T15:58:04.490Z,9.05
2023-02-17T16:01:12.268Z,10.00
2023-02-17T16:04:16.014Z,9.05
2023-02-17T16:07:19.216Z,9.93
2023-02-17T16:10:27.344Z,10.00
2023-02-17T16:13:31.238Z,10.60
2023-02-17T16:16:36.217Z,9.63
2023-02-17T16:19:40.389Z,10.52
2023-02-17T16:22:45.399Z,9.23
2023-02-17T16:25:52.783Z,11.17
2023-02-17T16:28:56.389Z,10.77
2023-02-17T16:31:59.692Z,9.35
2023-02-17T16:35:02.984Z,9.40
2023-02-17T16:38:20.401Z,9.70
2023-02-17T16:41:26.099Z,11.67
2023-02-17T16:44:29.652Z,11.52
2023-02-17T16:47:33.050Z,10.45
2023-02-17T16:50:36.629Z,10.35
2023-02-17T16:53:39.943Z,11.43
2023-02-17T16:56:47.596Z,11.63
2023-02-17T16:59:51.392Z,12.88
2023-02-17T17:02:56.951Z,12.65
2023-02-17T17:06:01.706Z,12.18
2023-02-17T17:09:06.268Z,12.50
2023-02-17T17:12:11.590Z,11.23
2023-02-17T17:15:17.372Z,12.50
2023-02-17T17:18:21.863Z,12.40
2023-02-17T17:21:26.139Z,12.52
2023-02-17T17:24:30.742Z,13.43
2023-02-17T17:27:34.032Z,13.47
2023-02-17T17:30:37.468Z,12.95
2023-02-17T17:33:41.486Z,11.70
2023-02-17T17:36:46.932Z,12.57
2023-02-17T17:39:50.350Z,12.20
2023-02-17T17:42:53.918Z,12.67
2023-02-17T17:46:00.363Z,11.00
2023-02-17T17:49:06.126Z,11.48
2023-02-17T17:52:09.517Z,12.43
2023-02-17T17:55:13.266Z,13.00
2023-02-17T17:58:17.238Z,11.83
2023-02-17T18:01:22.311Z,11.82
2023-02-17T18:04:25.866Z,10.98
2023-02-17T18:07:29.840Z,11.82
2023-02-17T18:10:33.547Z,12.00
2023-02-17T18:13:38.081Z,8.83
2023-02-17T18:16:46.187Z,10.38
2023-02-17T18:19:54.637Z,12.00
2023-02-17T18:22:58.353Z,11.57
2023-02-17T18:26:01.731Z,10.90
2023-02-17T18:29:05.478Z,9.13
2023-02-17T18:32:09.126Z,11.00
2023-02-17T18:35:13.628Z,10.30
2023-02-17T18:38:24.738Z,12.85
2023-02-17T18:41:31.352Z,12.20
2023-02-17T18:44:34.663Z,12.43
2023-02-17T18:47:38.415Z,11.70
2023-02-17T18:50:41.791Z,11.90
2023-02-17T18:53:45.532Z,12.10
2023-02-17T18:56:49.174Z,11.13
2023-02-17T18:59:52.677Z,11.50
2023-02-17T19:02:56.306Z,10.40
2023-02-17T19:06:07.980Z,9.98
2023-02-17T19:09:12.210Z,10.38
2023-02-17T19:12:15.672Z,9.67
2023-02-17T19:15:21.037Z,10.30
2023-02-17T19:18:24.582Z,9.98
2023-02-17T19:21:30.659Z,12.35
2023-02-17T19:24:35.494Z,13.70
2023-02-17T19:27:42.080Z,12.43
2023-02-17T19:30:45.703Z,13.73
2023-02-17T19:33:49.263Z,12.75
2023-02-17T19:36:52.769Z,13.88
2023-02-17T19:39:56.384Z,13.70
2023-02-17T19:43:01.279Z,13.00
2023-02-17T19:46:05.358Z,14.53
2023-02-17T19:49:09.210Z,11.57
2023-02-17T19:52:12.977Z,13.52
2023-02-17T19:55:16.628Z,11.98
2023-02-17T19:58:20.164Z,12.30
2023-02-17T20:01:27.007Z,12.47
2023-02-17T20:04:31.126Z,12.15
2023-02-17T20:07:34.860Z,11.27
2023-02-17T20:10:40.643Z,12.65
2023-02-17T20:13:46.673Z,12.90
2023-02-17T20:16:53.331Z,9.47
2023-02-17T20:19:57.330Z,12.85
2023-02-17T20:23:00.917Z,12.40
2023-02-17T20:26:08.514Z,8.98
2023-02-17T20:29:13.556Z,8.80
2023-02-17T20:32:17.385Z,11.03
2023-02-17T20:35:21.037Z,10.82
2023-02-17T20:38:24.941Z,10.10
2023-02-17T20:41:28.457Z,12.23
2023-02-17T20:44:32.182Z,10.17
2023-02-17T20:47:38.615Z,10.80
2023-02-17T20:50:42.627Z,14.45
2023-02-17T20:53:46.556Z,13.02
2023-02-17T20:56:50.308Z,10.52
2023-02-17T20:59:53.831Z,14.33
2023-02-17T21:02:57.472Z,14.80
2023-02-17T21:06:03.589Z,14.57
2023-02-17T21:09:12.362Z,15.55
2023-02-17T21:12:15.910Z,13.82
2023-02-17T21:15:19.883Z,14.77
2023-02-17T21:18:23.813Z,11.90
2023-02-17T21:21:27.931Z,16.23
2023-02-17T21:24:31.372Z,15.05
2023-02-17T21:27:35.360Z,14.57
2023-02-17T21:30:39.162Z,13.03
2023-02-17T21:33:43.040Z,13.50
2023-02-17T21:36:46.594Z,12.05
2023-02-17T21:39:50.144Z,13.60
2023-02-17T21:43:12.212Z,12.77
2023-02-17T21:46:15.309Z,10.57
2023-02-17T21:49:18.851Z,12.77
2023-02-17T21:52:23.065Z,15.02
2023-02-17T21:55:26.530Z,14.88
2023-02-17T21:58:30.717Z,14.45
2023-02-17T22:01:34.447Z,15.03
2023-02-17T22:04:37.623Z,16.43
2023-02-17T22:07:40.808Z,14.77
2023-02-17T22:10:45.436Z,14.43
2023-02-17T22:13:48.863Z,14.38
2023-02-17T22:16:52.162Z,14.30
2023-02-17T22:19:56.756Z,13.20
2023-02-17T22:22:59.935Z,13.15
2023-02-17T22:26:10.617Z,11.32
2023-02-17T22:29:14.114Z,13.60
2023-02-17T22:32:17.341Z,14.30
2023-02-17T22:35:22.127Z,12.30
2023-02-17T22:38:25.963Z,12.93
2023-02-17T22:41:29.550Z,14.48
2023-02-17T22:44:32.734Z,13.27
2023-02-17T22:47:36.141Z,13.40
2023-02-17T22:50:40.794Z,13.60
2023-02-17T22:53:44.540Z,12.40
2023-02-17T22:56:47.982Z,12.57
2023-02-17T22:59:51.146Z,13.13
2023-02-17T23:02:54.448Z,14.00
2023-02-17T23:06:10.185Z,13.13
2023-02-17T23:09:17.158Z,13.45
2023-02-17T23:12:20.695Z,13.68
2023-02-17T23:15:39.271Z,13.02
2023-02-17T23:18:42.462Z,13.67
2023-02-17T23:21:48.418Z,13.57
2023-02-17T23:24:51.608Z,14.45
2023-02-17T23:27:54.839Z,13.13
2023-02-17T23:30:58.165Z,13.02
2023-02-17T23:34:01.509Z,13.60
2023-02-17T23:37:04.694Z,14.73
2023-02-17T23:40:10.028Z,14.93
2023-02-17T23:43:13.900Z,13.57
2023-02-17T23:46:17.321Z,13.25
2023-02-17T23:49:20.617Z,13.80
2023-02-17T23:52:23.868Z,13.13
2023-02-17T23:55:27.178Z,13.45
2023-02-17T23:58:31.651Z,12.73
